Time;durP1;ratioP1;P1;durP2;ratioP2;P2;SDS_P1;SDS_P2;PMS_P1;PMS_P2;Temp;Humidity;BMP_temperature;BMP_pressure;BME280_temperature;BME280_humidity;BME280_pressure;Samples;Min_cycle;Max_cycle;Signal;HPM_P1;HPM_P2
2022/05/27 00:01:44;;;;;;;3.83;2.07;;;;;;;;;;5000370;28;20441;-54
2022/05/27 00:04:09;;;;;;;4.00;1.90;;;;;;;;;;4999325;28;20491;-54
2022/05/27 00:06:35;;;;;;;3.33;2.10;;;;;;;;;;4999149;28;20272;-53
2022/05/27 00:09:00;;;;;;;5.13;2.10;;;;;;;;;;5014326;28;20269;-53
2022/05/27 00:11:25;;;;;;;2.80;2.10;;;;;;;;;;5000413;28;20787;-57
2022/05/27 00:13:51;;;;;;;4.43;1.83;;;;;;;;;;4997108;28;20253;-53
2022/05/27 00:16:16;;;;;;;4.03;1.85;;;;;;;;;;4991309;28;20268;-54
2022/05/27 00:18:41;;;;;;;4.10;2.20;;;;;;;;;;5000674;28;20021;-53
2022/05/27 00:21:07;;;;;;;4.78;1.98;;;;;;;;;;4996653;28;20260;-52
2022/05/27 00:23:32;;;;;;;5.70;2.00;;;;;;;;;;5000287;28;20033;-54
2022/05/27 00:25:57;;;;;;;5.13;2.23;;;;;;;;;;4990706;28;20801;-53
2022/05/27 00:28:22;;;;;;;3.90;2.07;;;;;;;;;;4996662;28;20752;-54
2022/05/27 00:30:48;;;;;;;4.70;2.00;;;;;;;;;;4992777;28;20133;-53
2022/05/27 00:33:13;;;;;;;3.92;2.30;;;;;;;;;;4999517;28;20290;-54
2022/05/27 00:35:38;;;;;;;2.60;1.83;;;;;;;;;;4996995;28;20495;-54
2022/05/27 00:38:04;;;;;;;3.00;1.90;;;;;;;;;;4998670;28;20287;-58
2022/05/27 00:40:36;;;;;;;3.10;1.90;;;;;;;;;;4997465;28;20025;-55
2022/05/27 00:43:02;;;;;;;3.28;2.15;;;;;;;;;;4997869;28;20551;-54
2022/05/27 00:45:27;;;;;;;4.07;2.10;;;;;;;;;;4998016;28;20050;-53
2022/05/27 00:47:53;;;;;;;4.77;2.10;;;;;;;;;;4996915;28;20261;-54
2022/05/27 00:50:19;;;;;;;4.30;2.35;;;;;;;;;;4995371;28;20380;-55
2022/05/27 00:52:45;;;;;;;3.53;2.40;;;;;;;;;;4996776;28;20029;-52
2022/05/27 00:55:15;;;;;;;3.83;2.20;;;;;;;;;;5013315;28;20087;-53
2022/05/27 00:57:43;;;;;;;4.00;2.30;;;;;;;;;;4995675;28;20022;-53
2022/05/27 01:00:13;;;;;;;3.30;2.08;;;;;;;;;;4996480;28;20017;-54
2022/05/27 01:02:38;;;;;;;;;;;;;;;;;;4998618;28;20033;-53
2022/05/27 01:05:03;;;;;;;5.03;2.20;;;;;;;;;;4995288;28;19921;-53
2022/05/27 01:07:29;;;;;;;4.40;2.45;;;;;;;;;;4986876;28;20017;-54
2022/05/27 01:09:54;;;;;;;4.53;2.25;;;;;;;;;;4997333;28;20033;-56
2022/05/27 01:12:28;;;;;;;3.65;2.25;;;;;;;;;;4997023;28;20104;-54
2022/05/27 01:15:12;;;;;;;3.47;2.22;;;;;;;;;;5014919;28;20022;-55
2022/05/27 01:17:49;;;;;;;4.35;2.15;;;;;;;;;;4999873;28;20026;-53
2022/05/27 01:20:27;;;;;;;3.97;2.25;;;;;;;;;;4996743;28;20537;-53
2022/05/27 01:23:03;;;;;;;4.72;2.42;;;;;;;;;;5004236;28;20022;-53
2022/05/27 01:25:40;;;;;;;4.97;2.00;;;;;;;;;;4991888;28;20449;-58
2022/05/27 01:28:24;;;;;;;3.78;2.35;;;;;;;;;;4983457;28;20036;-53
2022/05/27 01:30:55;;;;;;;3.38;2.17;;;;;;;;;;4996884;28;20038;-56
2022/05/27 01:33:40;;;;;;;5.68;2.50;;;;;;;;;;4992170;28;20111;-53
2022/05/27 01:36:15;;;;;;;3.63;2.10;;;;;;;;;;5011659;28;20097;-53
2022/05/27 01:38:49;;;;;;;3.70;2.20;;;;;;;;;;4987380;28;20392;-53
2022/05/27 01:41:33;;;;;;;4.57;2.47;;;;;;;;;;4997725;28;20026;-56
2022/05/27 01:44:11;;;;;;;7.00;2.25;;;;;;;;;;5012580;28;20046;-53
2022/05/27 01:46:46;;;;;;;5.75;2.75;;;;;;;;;;5010275;28;20037;-53
2022/05/27 01:49:30;;;;;;;3.58;2.25;;;;;;;;;;4998804;28;20025;-52
2022/05/27 01:52:01;;;;;;;4.32;2.40;;;;;;;;;;4992789;28;20532;-56
2022/05/27 01:54:39;;;;;;;3.30;2.20;;;;;;;;;;5013753;28;20022;-55
2022/05/27 01:57:05;;;;;;;4.07;2.47;;;;;;;;;;4994090;28;20045;-52
2022/05/27 01:59:40;;;;;;;5.15;2.40;;;;;;;;;;5013823;28;20026;-55
2022/05/27 02:02:10;;;;;;;5.45;2.40;;;;;;;;;;5000527;28;20437;-54
2022/05/27 02:04:36;;;;;;;;;;;;;;;;;;4992587;28;20129;-53
2022/05/27 02:07:02;;;;;;;4.90;2.33;;;;;;;;;;4998575;28;20012;-55
2022/05/27 02:09:28;;;;;;;3.30;2.22;;;;;;;;;;4995107;28;20013;-56
2022/05/27 02:11:56;;;;;;;4.15;2.42;;;;;;;;;;5002611;28;20021;-54
2022/05/27 02:14:37;;;;;;;6.32;2.35;;;;;;;;;;5002564;28;20022;-54
2022/05/27 02:17:03;;;;;;;5.15;2.20;;;;;;;;;;5015700;28;20112;-54
2022/05/27 02:19:30;;;;;;;4.15;2.10;;;;;;;;;;5017746;28;20524;-53
2022/05/27 02:21:55;;;;;;;4.20;2.33;;;;;;;;;;4996924;28;20135;-53
2022/05/27 02:24:20;;;;;;;3.83;2.27;;;;;;;;;;4999119;28;20509;-53
2022/05/27 02:26:52;;;;;;;4.53;2.40;;;;;;;;;;5000140;28;20411;-54
2022/05/27 02:29:18;;;;;;;4.90;2.50;;;;;;;;;;4999256;28;20188;-56
2022/05/27 02:31:47;;;;;;;3.85;2.40;;;;;;;;;;5016419;28;20112;-53
2022/05/27 02:37:00;;;;;;;3.45;2.45;;;;;;;;;;4997145;28;20041;-54
2022/05/27 02:39:25;;;;;;;4.93;2.85;;;;;;;;;;5001562;28;20038;-53
2022/05/27 02:42:02;;;;;;;4.43;2.60;;;;;;;;;;5002012;28;20021;-54
2022/05/27 02:44:27;;;;;;;4.53;2.50;;;;;;;;;;5011210;28;20068;-54
2022/05/27 02:47:10;;;;;;;3.67;2.77;;;;;;;;;;4999569;28;20049;-54
2022/05/27 02:49:45;;;;;;;3.53;2.50;;;;;;;;;;5001186;28;20028;-53
2022/05/27 02:52:16;;;;;;;4.40;2.42;;;;;;;;;;5011799;28;20456;-56
2022/05/27 02:54:53;;;;;;;4.90;2.42;;;;;;;;;;4999275;28;20018;-53
2022/05/27 02:57:23;;;;;;;6.30;2.42;;;;;;;;;;4984124;28;20413;-54
2022/05/27 02:59:49;;;;;;;4.53;2.42;;;;;;;;;;5002196;28;20412;-54
2022/05/27 03:02:15;;;;;;;3.53;2.53;;;;;;;;;;4994012;28;20029;-53
2022/05/27 03:04:41;;;;;;;6.15;3.20;;;;;;;;;;4998760;28;20029;-55
2022/05/27 03:07:26;;;;;;;4.80;2.60;;;;;;;;;;4997502;28;20022;-51
2022/05/27 03:09:53;;;;;;;5.30;3.30;;;;;;;;;;5000722;28;20037;-53
2022/05/27 03:12:28;;;;;;;5.28;2.40;;;;;;;;;;4996836;28;20038;-53
2022/05/27 03:15:00;;;;;;;4.18;2.42;;;;;;;;;;5014208;28;20129;-53
2022/05/27 03:17:47;;;;;;;5.55;3.00;;;;;;;;;;5008271;28;20672;-55
2022/05/27 03:20:16;;;;;;;4.68;2.67;;;;;;;;;;4994399;28;20025;-57
2022/05/27 03:22:50;;;;;;;5.75;2.67;;;;;;;;;;4997463;28;20047;-58
2022/05/27 03:25:15;;;;;;;3.92;2.60;;;;;;;;;;4995551;28;20413;-55
2022/05/27 03:27:43;;;;;;;4.93;2.60;;;;;;;;;;4992706;28;20504;-57
2022/05/27 03:30:19;;;;;;;4.72;2.42;;;;;;;;;;4995978;28;20853;-54
2022/05/27 03:33:03;;;;;;;4.82;2.42;;;;;;;;;;5016324;28;20017;-53
2022/05/27 03:35:47;;;;;;;3.60;2.75;;;;;;;;;;5001668;28;20022;-55
2022/05/27 03:38:15;;;;;;;3.90;2.67;;;;;;;;;;5000228;28;20029;-57
2022/05/27 03:40:46;;;;;;;4.38;2.95;;;;;;;;;;4999830;28;20061;-53
2022/05/27 03:43:11;;;;;;;4.55;3.35;;;;;;;;;;4998266;28;20543;-54
2022/05/27 03:45:50;;;;;;;3.83;2.92;;;;;;;;;;5001989;28;20030;-54
2022/05/27 03:48:16;;;;;;;2.95;2.50;;;;;;;;;;4997230;28;20018;-53
2022/05/27 03:50:41;;;;;;;4.10;2.70;;;;;;;;;;4991535;28;20034;-55
2022/05/27 03:53:06;;;;;;;4.97;2.63;;;;;;;;;;5014559;28;20110;-54
2022/05/27 03:55:32;;;;;;;5.68;2.95;;;;;;;;;;4999895;28;20054;-53
2022/05/27 03:57:57;;;;;;;4.70;2.95;;;;;;;;;;5002046;28;20473;-52
2022/05/27 04:00:22;;;;;;;5.37;2.80;;;;;;;;;;4997527;28;20029;-54
2022/05/27 04:02:48;;;;;;;4.80;2.70;;;;;;;;;;4997364;28;20256;-59
2022/05/27 04:05:15;;;;;;;3.90;2.63;;;;;;;;;;4992544;28;20601;-53
2022/05/27 04:07:41;;;;;;;4.30;2.83;;;;;;;;;;4998995;28;20041;-53
2022/05/27 04:10:08;;;;;;;6.60;3.67;;;;;;;;;;5013779;28;20021;-54
2022/05/27 04:12:33;;;;;;;4.82;2.80;;;;;;;;;;5001184;28;20269;-53
2022/05/27 04:14:59;;;;;;;5.57;3.10;;;;;;;;;;4994349;28;20036;-57
2022/05/27 04:17:30;;;;;;;7.45;3.20;;;;;;;;;;4999569;28;20026;-55
2022/05/27 04:20:03;;;;;;;5.85;3.38;;;;;;;;;;4999621;28;20056;-55
2022/05/27 04:22:28;;;;;;;4.88;2.92;;;;;;;;;;4996197;28;20107;-54
2022/05/27 04:24:53;;;;;;;6.67;3.40;;;;;;;;;;4988316;28;20035;-58
2022/05/27 04:27:19;;;;;;;7.33;3.03;;;;;;;;;;4985418;28;20808;-55
2022/05/27 04:29:45;;;;;;;7.07;3.30;;;;;;;;;;4984309;28;20289;-54
2022/05/27 04:32:10;;;;;;;5.68;3.22;;;;;;;;;;4997613;28;20022;-54
2022/05/27 04:34:36;;;;;;;7.07;3.13;;;;;;;;;;4986048;28;20025;-56
2022/05/27 04:37:01;;;;;;;6.20;3.55;;;;;;;;;;4984383;28;21115;-56
2022/05/27 04:39:26;;;;;;;5.38;3.58;;;;;;;;;;4984096;28;20030;-58
2022/05/27 04:41:51;;;;;;;8.07;3.83;;;;;;;;;;4985177;28;20736;-54
2022/05/27 04:44:17;;;;;;;7.17;3.60;;;;;;;;;;4985792;28;20029;-52
2022/05/27 04:46:45;;;;;;;7.57;3.37;;;;;;;;;;4990092;28;20276;-53
2022/05/27 04:49:50;;;;;;;7.60;3.67;;;;;;;;;;4989299;28;20320;-54
2022/05/27 04:51:55;;;;;;;6.53;4.03;;;;;;;;;;4990776;28;20080;-52
2022/05/27 04:54:21;;;;;;;6.20;3.67;;;;;;;;;;4997039;28;20420;-52
2022/05/27 04:56:46;;;;;;;7.20;3.78;;;;;;;;;;4997557;28;20269;-52
2022/05/27 04:59:11;;;;;;;8.53;3.63;;;;;;;;;;4998979;28;20057;-52
2022/05/27 05:01:36;;;;;;;6.50;4.03;;;;;;;;;;4996968;28;20264;-53
2022/05/27 05:04:02;;;;;;;6.33;3.23;;;;;;;;;;4997858;28;20807;-52
2022/05/27 05:06:27;;;;;;;5.37;2.87;;;;;;;;;;4997813;28;20885;-54
2022/05/27 05:08:52;;;;;;;5.27;3.53;;;;;;;;;;4995807;28;20022;-52
2022/05/27 05:11:17;;;;;;;9.03;2.83;;;;;;;;;;4998200;28;20265;-52
2022/05/27 05:13:42;;;;;;;4.97;2.77;;;;;;;;;;4996240;28;20144;-53
2022/05/27 05:16:08;;;;;;;5.97;3.50;;;;;;;;;;5001441;28;20285;-53
2022/05/27 05:18:33;;;;;;;6.43;2.63;;;;;;;;;;4994701;28;20274;-52
2022/05/27 05:20:59;;;;;;;6.05;2.80;;;;;;;;;;4983574;28;20272;-52
2022/05/27 05:23:24;;;;;;;6.57;2.55;;;;;;;;;;4997302;28;20104;-52
2022/05/27 05:25:49;;;;;;;4.80;2.63;;;;;;;;;;5024091;28;20088;-52
2022/05/27 05:28:14;;;;;;;5.18;2.78;;;;;;;;;;4997443;28;20029;-52
2022/05/27 05:30:40;;;;;;;5.87;2.47;;;;;;;;;;5000519;28;20505;-52
2022/05/27 05:33:05;;;;;;;5.67;2.60;;;;;;;;;;4996524;28;20442;-53
2022/05/27 05:35:30;;;;;;;7.23;2.87;;;;;;;;;;5000845;28;20279;-52
2022/05/27 05:37:57;;;;;;;4.45;2.50;;;;;;;;;;5005426;28;20292;-53
2022/05/27 05:40:22;;;;;;;6.20;2.55;;;;;;;;;;5005837;28;20527;-53
2022/05/27 05:42:47;;;;;;;7.13;2.43;;;;;;;;;;4999536;28;20026;-52
2022/05/27 05:45:13;;;;;;;6.90;2.60;;;;;;;;;;4998672;28;20861;-51
2022/05/27 05:47:39;;;;;;;9.30;2.65;;;;;;;;;;5015452;28;20493;-52
2022/05/27 05:50:04;;;;;;;4.30;2.57;;;;;;;;;;5017494;28;20037;-53
2022/05/27 05:52:29;;;;;;;4.65;2.47;;;;;;;;;;5002092;28;20287;-52
2022/05/27 05:54:54;;;;;;;4.70;2.57;;;;;;;;;;5017615;28;20029;-51
2022/05/27 05:57:20;;;;;;;5.83;2.90;;;;;;;;;;4996773;28;20261;-52
2022/05/27 05:59:45;;;;;;;5.33;2.60;;;;;;;;;;5003568;28;20029;-51
2022/05/27 06:02:10;;;;;;;6.15;2.58;;;;;;;;;;5000130;28;20804;-52
2022/05/27 06:04:35;;;;;;;6.75;2.60;;;;;;;;;;4999792;28;20627;-52
2022/05/27 06:07:01;;;;;;;6.63;2.60;;;;;;;;;;4998142;28;20036;-52
2022/05/27 06:09:26;;;;;;;6.35;2.83;;;;;;;;;;4997816;28;20104;-52
2022/05/27 06:11:55;;;;;;;4.85;2.55;;;;;;;;;;4995861;28;20128;-51
2022/05/27 06:14:20;;;;;;;6.38;2.45;;;;;;;;;;5005298;28;20029;-52
2022/05/27 06:16:45;;;;;;;4.10;2.45;;;;;;;;;;5003391;28;20018;-51
2022/05/27 06:19:10;;;;;;;6.88;2.58;;;;;;;;;;5001653;28;20686;-51
2022/05/27 06:21:36;;;;;;;6.23;2.50;;;;;;;;;;5002173;28;20018;-56
2022/05/27 06:24:01;;;;;;;4.67;2.27;;;;;;;;;;5003527;28;20308;-55
2022/05/27 06:26:26;;;;;;;5.33;2.77;;;;;;;;;;4999839;28;20065;-57
2022/05/27 06:34:25;;;;;;;5.05;2.90;;;;;;;;;;5003405;28;20044;-52
2022/05/27 06:37:11;;;;;;;6.28;3.05;;;;;;;;;;4996345;28;20066;-52
2022/05/27 06:39:36;;;;;;;4.93;2.80;;;;;;;;;;4998634;28;20516;-51
2022/05/27 06:42:05;;;;;;;4.85;2.50;;;;;;;;;;5015993;28;20017;-51
2022/05/27 06:44:30;;;;;;;6.70;2.85;;;;;;;;;;4999762;28;20988;-52
2022/05/27 06:46:56;;;;;;;4.40;2.63;;;;;;;;;;4997303;28;20029;-52
2022/05/27 06:49:21;;;;;;;4.75;2.53;;;;;;;;;;5000172;28;20507;-51
2022/05/27 06:51:46;;;;;;;4.78;2.50;;;;;;;;;;5001096;28;20021;-52
2022/05/27 06:54:12;;;;;;;4.15;2.65;;;;;;;;;;5001208;28;20034;-51
2022/05/27 06:56:37;;;;;;;3.40;2.50;;;;;;;;;;4997757;28;20735;-52
2022/05/27 06:59:03;;;;;;;5.50;2.90;;;;;;;;;;4998207;28;20763;-52
2022/05/27 07:01:28;;;;;;;5.50;2.70;;;;;;;;;;4998183;28;20279;-52
2022/05/27 07:03:53;;;;;;;5.93;2.78;;;;;;;;;;4999503;28;20061;-52
2022/05/27 07:06:18;;;;;;;4.70;2.63;;;;;;;;;;4999866;28;20325;-53
2022/05/27 07:08:44;;;;;;;4.07;2.60;;;;;;;;;;4999112;28;20284;-52
2022/05/27 07:11:09;;;;;;;5.53;2.77;;;;;;;;;;4999283;28;20287;-53
2022/05/27 07:13:34;;;;;;;4.07;2.50;;;;;;;;;;4998958;28;20672;-52
2022/05/27 07:15:59;;;;;;;4.23;2.60;;;;;;;;;;5000354;28;20292;-51
2022/05/27 07:18:25;;;;;;;3.90;2.93;;;;;;;;;;4998266;28;20315;-50
2022/05/27 07:20:50;;;;;;;4.18;2.35;;;;;;;;;;5001250;28;20508;-56
2022/05/27 07:23:17;;;;;;;4.57;2.70;;;;;;;;;;4994325;28;20519;-51
2022/05/27 07:25:42;;;;;;;4.90;2.53;;;;;;;;;;4999589;28;20026;-52
2022/05/27 07:28:08;;;;;;;5.43;2.65;;;;;;;;;;5001964;28;20220;-52
2022/05/27 07:30:33;;;;;;;4.60;2.53;;;;;;;;;;5000912;28;20037;-54
2022/05/27 07:32:59;;;;;;;4.03;2.25;;;;;;;;;;4999104;28;20029;-53
2022/05/27 07:35:24;;;;;;;3.70;2.40;;;;;;;;;;4996966;28;20022;-52
2022/05/27 07:37:49;;;;;;;4.55;2.60;;;;;;;;;;4995782;28;20092;-53
2022/05/27 07:40:15;;;;;;;4.73;2.80;;;;;;;;;;5000717;28;20328;-53
2022/05/27 07:42:40;;;;;;;3.77;2.37;;;;;;;;;;5001237;28;20022;-51
2022/05/27 07:45:06;;;;;;;5.10;2.55;;;;;;;;;;4999619;28;20304;-51
2022/05/27 07:47:31;;;;;;;4.88;2.25;;;;;;;;;;4997488;28;20123;-52
2022/05/27 07:49:57;;;;;;;3.20;2.37;;;;;;;;;;4998665;28;20502;-51
2022/05/27 07:52:23;;;;;;;3.58;2.50;;;;;;;;;;5001202;28;20353;-52
2022/05/27 07:54:50;;;;;;;4.75;2.67;;;;;;;;;;4991973;28;20053;-51
2022/05/27 07:57:24;;;;;;;3.70;2.60;;;;;;;;;;4999977;28;20029;-51
2022/05/27 07:59:52;;;;;;;4.50;2.72;;;;;;;;;;4999459;28;20048;-51
2022/05/27 08:02:18;;;;;;;3.80;2.53;;;;;;;;;;4996932;28;20646;-51
2022/05/27 08:04:43;;;;;;;4.88;2.53;;;;;;;;;;4999728;28;20136;-51
2022/05/27 08:07:08;;;;;;;4.93;2.40;;;;;;;;;;4996115;28;20022;-51
2022/05/27 08:09:33;;;;;;;4.73;2.50;;;;;;;;;;4999651;28;20024;-51
2022/05/27 08:11:59;;;;;;;4.87;2.87;;;;;;;;;;5003144;28;21042;-51
2022/05/27 08:14:24;;;;;;;4.70;2.27;;;;;;;;;;4999750;28;20104;-51
2022/05/27 08:16:49;;;;;;;4.33;2.20;;;;;;;;;;4997473;28;20334;-52
2022/05/27 08:19:15;;;;;;;3.88;2.35;;;;;;;;;;5012508;28;20034;-51
2022/05/27 08:21:40;;;;;;;3.67;2.28;;;;;;;;;;4996916;28;20464;-51
2022/05/27 08:24:08;;;;;;;3.95;2.67;;;;;;;;;;4990667;28;20040;-51
2022/05/27 08:26:33;;;;;;;4.60;2.65;;;;;;;;;;4993640;28;20092;-51
2022/05/27 08:28:58;;;;;;;3.95;2.35;;;;;;;;;;4998214;28;20057;-52
2022/05/27 08:31:23;;;;;;;3.58;2.30;;;;;;;;;;4997332;28;20088;-51
2022/05/27 08:39:17;;;;;;;2.80;2.22;;;;;;;;;;5025230;28;20192;-51
2022/05/27 08:41:51;;;;;;;4.97;2.60;;;;;;;;;;5001891;28;20089;-51
2022/05/27 08:44:38;;;;;;;3.67;2.50;;;;;;;;;;5012825;28;20065;-51
2022/05/27 08:47:03;;;;;;;3.20;2.10;;;;;;;;;;4996830;28;20105;-51
2022/05/27 08:49:32;;;;;;;3.47;2.20;;;;;;;;;;4995156;28;20100;-51
2022/05/27 08:52:16;;;;;;;4.40;2.47;;;;;;;;;;4997284;28;20050;-54
2022/05/27 08:54:46;;;;;;;3.63;2.50;;;;;;;;;;4998933;28;20033;-50
2022/05/27 08:59:58;;;;;;;3.42;2.55;;;;;;;;;;4997917;28;19964;-52
2022/05/27 09:02:42;;;;;;;4.53;2.42;;;;;;;;;;4997706;28;20103;-50
2022/05/27 09:05:16;;;;;;;2.97;2.25;;;;;;;;;;4997063;28;20460;-52
2022/05/27 09:07:41;;;;;;;4.25;2.55;;;;;;;;;;4995960;28;20021;-52
2022/05/27 09:10:09;;;;;;;3.78;2.50;;;;;;;;;;4990968;28;20386;-51
2022/05/27 09:12:34;;;;;;;4.45;2.40;;;;;;;;;;5009279;28;20022;-51
2022/05/27 09:15:23;;;;;;;6.10;2.50;;;;;;;;;;5000514;28;20103;-51
2022/05/27 09:17:48;;;;;;;5.25;2.88;;;;;;;;;;4991748;28;20038;-51
2022/05/27 09:20:26;;;;;;;5.93;2.65;;;;;;;;;;5002013;28;20079;-51
2022/05/27 09:23:00;;;;;;;4.28;2.50;;;;;;;;;;4996335;28;20025;-51
2022/05/27 09:25:26;;;;;;;5.47;2.90;;;;;;;;;;4995705;28;20088;-53
2022/05/27 09:27:57;;;;;;;6.30;2.50;;;;;;;;;;4992655;28;20022;-52
2022/05/27 09:30:23;;;;;;;6.32;2.70;;;;;;;;;;4997260;28;20041;-51
2022/05/27 09:32:52;;;;;;;7.30;2.50;;;;;;;;;;4983485;28;20064;-52
2022/05/27 09:35:19;;;;;;;5.03;2.50;;;;;;;;;;4985803;28;20281;-51
2022/05/27 09:37:46;;;;;;;6.78;2.92;;;;;;;;;;5021634;28;20042;-52
2022/05/27 09:40:13;;;;;;;3.80;2.60;;;;;;;;;;4986653;28;20025;-52
2022/05/27 09:42:41;;;;;;;5.70;2.47;;;;;;;;;;5031810;28;20041;-52
2022/05/27 09:45:06;;;;;;;7.85;2.90;;;;;;;;;;5013913;28;20065;-52
2022/05/27 09:47:32;;;;;;;6.75;3.10;;;;;;;;;;4993145;28;20319;-52
2022/05/27 09:49:58;;;;;;;6.40;3.42;;;;;;;;;;4994176;28;20084;-51
2022/05/27 09:52:24;;;;;;;8.80;3.15;;;;;;;;;;4991853;28;20694;-51
2022/05/27 09:54:51;;;;;;;7.15;3.20;;;;;;;;;;4994997;28;20029;-52
2022/05/27 09:57:25;;;;;;;6.43;3.10;;;;;;;;;;5012872;28;20022;-53
2022/05/27 09:59:54;;;;;;;7.72;3.05;;;;;;;;;;4996165;28;20026;-52
2022/05/27 10:02:26;;;;;;;6.15;2.85;;;;;;;;;;4995807;28;20041;-52
2022/05/27 10:04:56;;;;;;;5.55;3.03;;;;;;;;;;5013891;28;20026;-51
2022/05/27 10:07:25;;;;;;;7.70;3.13;;;;;;;;;;4995796;28;20022;-52
2022/05/27 10:09:50;;;;;;;8.00;2.87;;;;;;;;;;4998287;28;20036;-52
2022/05/27 10:12:26;;;;;;;6.65;2.75;;;;;;;;;;5000466;28;20304;-51
2022/05/27 10:14:51;;;;;;;9.02;3.30;;;;;;;;;;4991438;28;20018;-52
2022/05/27 10:17:25;;;;;;;5.30;2.55;;;;;;;;;;4998109;28;20033;-51
2022/05/27 10:19:51;;;;;;;5.05;2.90;;;;;;;;;;4994605;28;20025;-51
2022/05/27 10:22:26;;;;;;;9.32;2.80;;;;;;;;;;4996955;28;20030;-51
2022/05/27 10:25:08;;;;;;;7.43;3.00;;;;;;;;;;4996667;28;20436;-52
2022/05/27 10:27:41;;;;;;;5.38;2.60;;;;;;;;;;4998679;28;20104;-53
2022/05/27 10:30:06;;;;;;;3.28;2.60;;;;;;;;;;5005359;28;20085;-50
2022/05/27 10:32:32;;;;;;;7.75;2.60;;;;;;;;;;4998585;28;20045;-52
2022/05/27 10:34:58;;;;;;;6.40;2.83;;;;;;;;;;5000585;28;20026;-52
2022/05/27 10:37:28;;;;;;;5.72;2.40;;;;;;;;;;4991850;28;20599;-52
2022/05/27 10:39:57;;;;;;;6.15;2.70;;;;;;;;;;5000218;28;20100;-51
2022/05/27 10:42:41;;;;;;;4.82;2.42;;;;;;;;;;5003273;28;20044;-53
2022/05/27 10:45:09;;;;;;;4.40;2.60;;;;;;;;;;5002201;28;20034;-50
2022/05/27 10:47:53;;;;;;;5.53;2.67;;;;;;;;;;4997897;28;20025;-52
2022/05/27 10:50:39;;;;;;;5.47;2.38;;;;;;;;;;4999164;28;20037;-51
2022/05/27 10:53:13;;;;;;;4.25;2.53;;;;;;;;;;4996064;28;20034;-52
2022/05/27 10:55:57;;;;;;;4.60;2.53;;;;;;;;;;4999619;28;20080;-52
2022/05/27 11:04:30;;;;;;;5.43;2.08;;;;;;;;;;4973862;28;20103;-51
2022/05/27 11:07:01;;;;;;;5.43;2.28;;;;;;;;;;4996086;28;20506;-54
2022/05/27 11:09:30;;;;;;;4.80;2.42;;;;;;;;;;4999480;28;20022;-53
2022/05/27 11:12:05;;;;;;;4.20;2.63;;;;;;;;;;4998703;28;20026;-52
2022/05/27 11:17:42;;;;;;;5.00;2.30;;;;;;;;;;4998269;28;20448;-52
2022/05/27 11:20:28;;;;;;;5.35;2.28;;;;;;;;;;4998086;28;20104;-53
2022/05/27 11:22:56;;;;;;;4.65;2.20;;;;;;;;;;4989838;28;20045;-52
2022/05/27 11:25:21;;;;;;;5.45;2.13;;;;;;;;;;4999767;28;21125;-53
2022/05/27 11:27:53;;;;;;;4.88;2.08;;;;;;;;;;5000791;28;20018;-52
2022/05/27 11:30:39;;;;;;;5.55;2.53;;;;;;;;;;5000085;28;20195;-52
2022/05/27 11:33:05;;;;;;;3.70;2.40;;;;;;;;;;4995464;28;20116;-53
2022/05/27 11:35:36;;;;;;;5.20;2.33;;;;;;;;;;4992900;28;20109;-52
2022/05/27 11:38:01;;;;;;;4.30;2.40;;;;;;;;;;5001784;28;20347;-52
2022/05/27 11:40:29;;;;;;;4.30;2.10;;;;;;;;;;5001933;28;20037;-53
2022/05/27 11:43:10;;;;;;;4.70;2.50;;;;;;;;;;5003720;28;20725;-52
2022/05/27 11:45:35;;;;;;;5.72;2.35;;;;;;;;;;4986713;28;20029;-51
2022/05/27 11:48:04;;;;;;;5.35;2.33;;;;;;;;;;5001950;28;20034;-53
2022/05/27 11:50:43;;;;;;;6.73;2.70;;;;;;;;;;5000358;28;20036;-50
2022/05/27 11:53:27;;;;;;;6.15;2.40;;;;;;;;;;5012961;28;20026;-52
2022/05/27 11:55:58;;;;;;;6.35;2.60;;;;;;;;;;4999755;28;20017;-52
2022/05/27 11:58:38;;;;;;;7.10;2.85;;;;;;;;;;4998030;28;20040;-52
2022/05/27 12:01:09;;;;;;;5.05;2.72;;;;;;;;;;4997630;28;20018;-52
2022/05/27 12:03:38;;;;;;;5.40;2.25;;;;;;;;;;4995244;28;20180;-51
2022/05/27 12:06:04;;;;;;;5.22;2.20;;;;;;;;;;4990846;28;20068;-52
2022/05/27 12:08:34;;;;;;;7.32;2.35;;;;;;;;;;4998464;28;20068;-52
2022/05/27 12:11:11;;;;;;;5.45;2.30;;;;;;;;;;5018056;28;20037;-52
2022/05/27 12:13:38;;;;;;;6.95;2.92;;;;;;;;;;5001203;28;20018;-50
2022/05/27 12:16:03;;;;;;;5.78;2.22;;;;;;;;;;5014729;28;20076;-50
2022/05/27 12:18:47;;;;;;;4.95;2.20;;;;;;;;;;5005232;28;20021;-54
2022/05/27 12:21:22;;;;;;;4.05;2.20;;;;;;;;;;4999909;28;20026;-53
2022/05/27 12:24:08;;;;;;;5.05;2.38;;;;;;;;;;5012831;28;20030;-53
2022/05/27 12:26:33;;;;;;;4.20;2.30;;;;;;;;;;4993899;28;20040;-53
2022/05/27 12:28:59;;;;;;;4.70;2.45;;;;;;;;;;4992944;28;20050;-53
2022/05/27 12:31:24;;;;;;;4.72;2.20;;;;;;;;;;5016722;28;20079;-53
2022/05/27 12:33:50;;;;;;;6.68;2.40;;;;;;;;;;5032333;28;20492;-53
2022/05/27 12:36:25;;;;;;;3.43;2.07;;;;;;;;;;4997344;28;20445;-52
2022/05/27 12:38:52;;;;;;;6.18;2.38;;;;;;;;;;5000552;28;20269;-52
2022/05/27 12:41:30;;;;;;;5.05;2.17;;;;;;;;;;5021568;28;20170;-51
2022/05/27 12:44:10;;;;;;;5.15;2.40;;;;;;;;;;5004381;28;20093;-51
2022/05/27 12:46:42;;;;;;;6.60;2.67;;;;;;;;;;5026636;28;20030;-51
2022/05/27 12:49:27;;;;;;;5.80;2.92;;;;;;;;;;4990067;28;20042;-51
2022/05/27 12:51:52;;;;;;;7.00;2.33;;;;;;;;;;5000958;28;20559;-51
2022/05/27 12:54:36;;;;;;;4.88;2.53;;;;;;;;;;5027201;28;20034;-52
2022/05/27 13:02:42;;;;;;;4.28;2.33;;;;;;;;;;4995553;28;20060;-52
2022/05/27 13:05:08;;;;;;;5.90;2.37;;;;;;;;;;4999488;28;20107;-52
2022/05/27 13:07:33;;;;;;;5.50;2.67;;;;;;;;;;4993583;28;20464;-51
2022/05/27 13:10:17;;;;;;;6.32;2.30;;;;;;;;;;4994713;28;20026;-52
2022/05/27 13:12:42;;;;;;;6.07;2.38;;;;;;;;;;4993643;28;20026;-53
2022/05/27 13:15:11;;;;;;;8.07;2.60;;;;;;;;;;4996147;28;20033;-53
2022/05/27 13:17:36;;;;;;;4.28;2.38;;;;;;;;;;4995137;28;20088;-51
2022/05/27 13:20:04;;;;;;;6.78;2.70;;;;;;;;;;4997517;28;20034;-52
2022/05/27 13:22:30;;;;;;;5.15;2.83;;;;;;;;;;4995499;28;20032;-50
2022/05/27 13:24:55;;;;;;;5.90;2.60;;;;;;;;;;4996215;28;20041;-50
2022/05/27 13:27:22;;;;;;;5.20;3.10;;;;;;;;;;4994915;28;20133;-51
2022/05/27 13:29:54;;;;;;;5.68;2.78;;;;;;;;;;5011756;28;20301;-50
2022/05/27 13:32:20;;;;;;;3.83;2.15;;;;;;;;;;4993288;28;20017;-51
2022/05/27 13:34:55;;;;;;;5.22;2.60;;;;;;;;;;5000868;28;20010;-51
2022/05/27 13:37:32;;;;;;;6.75;2.72;;;;;;;;;;4993287;28;20025;-52
2022/05/27 13:39:58;;;;;;;5.80;2.40;;;;;;;;;;4996296;28;20033;-50
2022/05/27 13:42:28;;;;;;;6.50;2.88;;;;;;;;;;5033479;28;20112;-51
2022/05/27 13:44:53;;;;;;;3.60;2.08;;;;;;;;;;4997522;28;20034;-50
2022/05/27 13:47:18;;;;;;;5.40;2.43;;;;;;;;;;4998707;28;20034;-51
2022/05/27 13:49:44;;;;;;;4.90;2.20;;;;;;;;;;4996451;28;21425;-50
2022/05/27 13:52:19;;;;;;;6.40;2.70;;;;;;;;;;4998619;28;20277;-51
2022/05/27 13:54:44;;;;;;;4.90;2.05;;;;;;;;;;4993875;28;20364;-50
2022/05/27 13:57:10;;;;;;;3.63;2.20;;;;;;;;;;4998555;28;20104;-52
2022/05/27 13:59:42;;;;;;;4.35;1.95;;;;;;;;;;5023483;28;20296;-51
2022/05/27 14:02:17;;;;;;;4.45;2.60;;;;;;;;;;5022558;28;20029;-51
2022/05/27 14:04:50;;;;;;;5.47;2.47;;;;;;;;;;5014710;28;20032;-51
2022/05/27 14:07:21;;;;;;;6.38;2.28;;;;;;;;;;5014759;28;20378;-52
2022/05/27 14:09:49;;;;;;;6.25;2.20;;;;;;;;;;5003431;28;20085;-51
2022/05/27 14:12:16;;;;;;;5.05;2.15;;;;;;;;;;4999975;28;20524;-52
2022/05/27 14:14:42;;;;;;;5.30;2.60;;;;;;;;;;4999496;28;20441;-51
2022/05/27 14:17:14;;;;;;;5.22;2.40;;;;;;;;;;4994875;28;20080;-52
2022/05/27 14:19:39;;;;;;;4.07;2.10;;;;;;;;;;4996198;28;20029;-51
2022/05/27 14:25:04;;;;;;;4.38;2.08;;;;;;;;;;4997260;28;20180;-51
2022/05/27 14:27:31;;;;;;;5.82;2.50;;;;;;;;;;4997962;28;20475;-50
2022/05/27 14:29:57;;;;;;;5.22;2.38;;;;;;;;;;4999249;28;20050;-51
2022/05/27 14:32:23;;;;;;;5.32;2.67;;;;;;;;;;5000026;28;20580;-51
2022/05/27 14:34:52;;;;;;;4.53;2.20;;;;;;;;;;5001997;28;20125;-50
2022/05/27 14:37:38;;;;;;;4.53;2.35;;;;;;;;;;5001174;28;20025;-52
2022/05/27 14:40:08;;;;;;;5.47;2.35;;;;;;;;;;5002011;28;20065;-55
2022/05/27 14:42:34;;;;;;;5.80;2.20;;;;;;;;;;4996474;28;20060;-51
2022/05/27 14:44:59;;;;;;;5.53;2.53;;;;;;;;;;5001435;28;20069;-53
2022/05/27 14:47:27;;;;;;;3.97;2.20;;;;;;;;;;4998501;28;20052;-53
2022/05/27 14:50:23;;;;;;;6.85;2.17;;;;;;;;;;4996645;28;20028;-52
2022/05/27 14:52:56;;;;;;;6.05;2.45;;;;;;;;;;4997415;28;20153;-55
2022/05/27 14:55:22;;;;;;;4.78;2.28;;;;;;;;;;4996243;28;20037;-53
2022/05/27 14:57:50;;;;;;;6.45;2.50;;;;;;;;;;4998876;28;20029;-53
2022/05/27 15:00:39;;;;;;;3.30;1.92;;;;;;;;;;4999550;28;20073;-54
2022/05/27 15:03:46;;;;;;;5.13;2.42;;;;;;;;;;5000771;28;20034;-51
2022/05/27 15:09:31;;;;;;;3.80;2.20;;;;;;;;;;4997334;28;20052;-52
2022/05/27 15:12:19;;;;;;;6.22;2.25;;;;;;;;;;5012368;28;20032;-52
2022/05/27 15:15:20;;;;;;;4.45;2.17;;;;;;;;;;4997771;28;20026;-52
2022/05/27 15:18:10;;;;;;;4.10;2.28;;;;;;;;;;4998820;28;20037;-53
2022/05/27 15:21:03;;;;;;;7.15;2.50;;;;;;;;;;4992177;28;20029;-54
2022/05/27 15:23:33;;;;;;;3.20;1.90;;;;;;;;;;5002218;28;20437;-54
2022/05/27 15:34:16;;;;;;;5.97;2.22;;;;;;;;;;5000080;28;20032;-52
2022/05/27 15:36:42;;;;;;;3.92;2.22;;;;;;;;;;4998760;28;20475;-52
2022/05/27 15:39:07;;;;;;;5.70;2.63;;;;;;;;;;5006991;28;20113;-54
2022/05/27 15:41:32;;;;;;;5.93;2.03;;;;;;;;;;4998102;28;20265;-52
2022/05/27 15:43:58;;;;;;;4.60;2.33;;;;;;;;;;5000889;28;20292;-52